Meteo Giornale » Osservazioni meteo Italia » Pisa-S Giusto

ore: 12:15 - Osservazioni Meteo Pisa-S Giusto
Lat. 43° 41' N Lon. 10° 23' E Alt. 2 metri s.l.m.

nuvoloso Europe/Rome

30 °C

Nuvoloso

Temp. 24 Ore

23 °C

36 °C

Nord

5.5 Km/h

Dew point 19 °C

Umidità 51 %

Visibilità  10 Km

Il sole sorge alle ore 06:13

Il sole tramonta alle ore 20:34

Data e Ora Cielo e Fenomeni T °C DP °C Um. % Pres. hPa Vis. km Vento km/h
Oggi h: 12:15 nuvoloso Nuvoloso 30 19 51 1014 10 N 5.5
Oggi h: 11:45 nuvoloso Nuvoloso 28 20 61 1015 10 O 9.3
Oggi h: 11:15 molto_nuvoloso Molto Nuvoloso 28 20 61 1015 10 N 3.7
Oggi h: 10:45 nuvoloso Nuvoloso 26 19 65 1015 10 N 5.5
Oggi h: 10:15 nuvoloso Nuvoloso 25 19 69 1014 10 N 1.8
Oggi h: 09:45 nuvoloso Nuvoloso 25 21 78 1014 10 NO 9.3
Oggi h: 09:15 nuvoloso Nuvoloso 24 20 78 1014 10 N 3.7
Oggi h: 08:45 molto_nuvoloso Molto Nuvoloso 23 19 78 1014 10 N 5.5
Oggi h: 08:15 nuvoloso_temporali Temporale nelle Vicinanze 23 20 83 1013 10 E/SE 20.3
Oggi h: 07:45 nuvoloso_temporali Temporale con Pioggia Debole 24 20 78 1014 10 E/NE 14.8
Oggi h: 07:15 nuvoloso_temporali Temporale con Pioggia Debole 23 20 83 1014 10 N 1.8
Oggi h: 06:45 nuvoloso_temporali Temporale nelle Vicinanze 24 20 78 1014 10 E 9.3
Oggi h: 06:15 nuvoloso Nuvoloso 24 20 78 1014 10 E 11.1
Oggi h: 05:45 nuvoloso Nuvoloso 24 19 73 1014 10 N 5.5
Oggi h: 05:15 nuvoloso Nuvoloso 23 20 83 1013 10 N 3.7
Oggi h: 04:45 poco_nuvoloso Poco Nuvoloso 23 19 78 1013 10 N 5.5
Oggi h: 04:15 poco_nuvoloso Poco Nuvoloso 26 17 57 1012 10 E/NE 14.8
Oggi h: 03:45 poco_nuvoloso Poco Nuvoloso 26 18 61 1012 10 E/NE 14.8
Oggi h: 03:15 poco_nuvoloso Poco Nuvoloso 23 20 83 1013 10 N 5.5
Oggi h: 02:45 poco_nuvoloso Poco Nuvoloso 24 22 88 1013 10 N 5.5
Oggi h: 02:15 poco_nuvoloso Poco Nuvoloso 24 22 88 1013 10 N 5.5
Oggi h: 01:45 poco_nuvoloso Poco Nuvoloso 24 22 88 1013 10 N 1.8
Oggi h: 01:15 poco_nuvoloso Poco Nuvoloso 24 21 83 1013 10 S/SE 11.1
Oggi h: 00:45 poco_nuvoloso Poco Nuvoloso 25 22 83 1013 10 E/SE 9.3
Oggi h: 00:15 sereno Sereno 25 22 83 1013 10 E/SE 9.3
Ieri h: 23:45 sereno Sereno 25 22 83 1013 10 E/SE 9.3
Ieri h: 23:15 sereno Sereno 25 21 78 1013 10 E/SE 7.4
Ieri h: 22:45 sereno Sereno 26 22 78 1013 10 E/SE 7.4
Ieri h: 22:15 sereno Sereno 27 21 69 1013 10 N 1.8
Ieri h: 21:45 sereno Sereno 27 21 69 1012 10 N 1.8
Ieri h: 21:15 sereno Sereno 27 21 69 1011 10 N 3.7
Ieri h: 20:45 sereno Sereno 28 20 61 1011 10 N 5.5
Ieri h: 20:15 sereno Sereno 29 20 58 1011 10 E 7.4
Ieri h: 19:45 sereno Sereno 30 19 51 1011 10 E/SE 11.1
Ieri h: 19:15 sereno Sereno 29 19 54 1011 10 E/SE 14.8
Ieri h: 18:45 poco_nuvoloso Poco Nuvoloso 29 20 58 1011 10 E 16.7
Ieri h: 18:15 poco_nuvoloso Poco Nuvoloso 29 21 62 1012 10 E/SE 22.2
Ieri h: 17:45 poco_nuvoloso Poco Nuvoloso 30 20 55 1012 10 E/NE 18.5
Ieri h: 17:15 nuvoloso_temporali Temporale nelle Vicinanze 27 18 57 1012 10 E/SE 37
Ieri h: 16:45 nuvoloso Rovescio nelle Vicinanze 33 14 31 1011 10 S 18.5
Ieri h: 16:15 poco_nuvoloso Rovescio nelle Vicinanze 35 17 34 1011 10 NO 20.3
Ieri h: 15:45 poco_nuvoloso Poco Nuvoloso 34 16 34 1011 10 NO 18.5
Ieri h: 15:15 poco_nuvoloso Poco Nuvoloso 34 16 34 1010 10 O/NO 22.2
Ieri h: 14:45 poco_nuvoloso Poco Nuvoloso 36 15 28 1011 10 S 7.4
Ieri h: 14:15 poco_nuvoloso Poco Nuvoloso 36 16 30 1011 10 E 11.1
Ieri h: 13:45 poco_nuvoloso Poco Nuvoloso 35 16 32 1012 10 E/NE 11.1
Ieri h: 13:15 sereno Sereno 35 16 32 1012 10 SE 13